To NAV CANADA Home Page Login to a new session Search on AWWS site Feedback and Comments Disclaimer Vers la page française équivalente Tips FAQ What's new on the site To the Forecasts and Observations / NOTAM section To "File a Flight Plan" website Publications and other links Update of the User's profile FIC Telephone Numbers My Weather Data Folder Route Weather Data Regional Weather Data Local Weather Data To the Forecasts and Observations / NOTAM section
Request Generated 08/22/2017 at 03:30:52 UTC . Weather information available at that time is displayed.

METAR/TAF

BRANDON MUNICIPALITY/MB    

METAR CYBR 220300Z 30006KT 15SM SKC 09/06 A3002 RMK SLP178=
METAR CYBR 220200Z 30006KT 15SM FEW250 12/06 A3001 RMK CI1 CI TR
SLP173=
METAR CYBR 220100Z 32010KT 15SM FEW050 19/05 A3000 RMK CU1 CU TR
SLP165 DENSITY ALT 2100FT=

TAF CYBR 212338Z 2200/2212 33015G25KT P6SM SCT060
BECMG 2202/2204 30010KT
RMK NXT FCST BY 220600Z=
Your time UTC time
Weather data provided by Environment Canada and NAV CANADA